This is the latest recevied weather packets stored in our database for station/object SQ3VAS-10. If no packets are shown the sender has not sent any weather packets the latest 10 day(s).
| Time | Temp. | Humidity | Pressure | Rain* | Wind** | Luminosity | Snow |
|---|---|---|---|---|---|---|---|
| 1777856772 | 17.78° C | 54% | 1010.3 hPa | - | - | - | - |
| 1777856200 | 17.22° C | 57% | 1010.3 hPa | - | - | - | - |
| 1777855627 | 17.78° C | 55% | 1010.2 hPa | - | - | - | - |
| 1777855053 | 17.22° C | 56% | 1010.3 hPa | - | - | - | - |
| 1777854481 | 16.67° C | 58% | 1010.4 hPa | - | - | - | - |
| 1777853908 | 16.11° C | 60% | 1010.5 hPa | - | - | - | - |
| 1777853335 | 16.67° C | 58% | 1010.4 hPa | - | - | - | - |
| 1777852763 | 16.11° C | 63% | 1010.4 hPa | - | - | - | - |
| 1777852190 | 16.11° C | 62% | 1010.3 hPa | - | - | - | - |
| 1777851618 | 16.11° C | 62% | 1010.2 hPa | - | - | - | - |
| 1777851046 | 16.67° C | 60% | 1010.2 hPa | - | - | - | - |
| 1777850474 | 16.11° C | 62% | 1010.2 hPa | - | - | - | - |
| 1777849901 | 16.11° C | 63% | 1010.1 hPa | - | - | - | - |
| 1777849330 | 15.56° C | 64% | 1010 hPa | - | - | - | - |
| 1777848756 | 15.56° C | 64% | 1010 hPa | - | - | - | - |
| 1777848185 | 16.11° C | 64% | 1010 hPa | - | - | - | - |
| 1777847613 | 16.11° C | 63% | 1010 hPa | - | - | - | - |
| 1777847042 | 16.67° C | 61% | 1010 hPa | - | - | - | - |
| 1777846468 | 16.67° C | 60% | 1010.1 hPa | - | - | - | - |
| 1777845896 | 17.22° C | 59% | 1010 hPa | - | - | - | - |
| 1777845324 | 16.67° C | 60% | 1010.2 hPa | - | - | - | - |
| 1777844752 | 17.22° C | 58% | 1010.2 hPa | - | - | - | - |
| 1777844179 | 17.22° C | 58% | 1010.4 hPa | - | - | - | - |
| 1777843607 | 17.78° C | 58% | 1010.2 hPa | - | - | - | - |
| 1777843036 | 17.78° C | 56% | 1010.1 hPa | - | - | - | - |
* Rain since midnight (hover to see other rain measurements)
** Current wind speed in m/s (hover to see current wind gust speed)